Time;durP1;ratioP1;P1;durP2;ratioP2;P2;SDS_P1;SDS_P2;PMS_P1;PMS_P2;Temp;Humidity;BMP_temperature;BMP_pressure;BME280_temperature;BME280_humidity;BME280_pressure;Samples;Min_cycle;Max_cycle;Signal;HPM_P1;HPM_P2
2021/01/10 00:00:28;;;;;;;31.77;20.25;;;-3.00;99.90;;;;;;5128029;27;20194;-28
2021/01/10 00:02:56;;;;;;;30.13;19.17;;;-3.00;99.90;;;;;;5129188;27;20487;-28
2021/01/10 00:05:24;;;;;;;35.20;20.10;;;-3.00;99.90;;;;;;5126676;27;20548;-26
2021/01/10 00:07:51;;;;;;;25.20;16.90;;;-3.10;99.90;;;;;;5129321;27;20206;-27
2021/01/10 00:10:19;;;;;;;22.85;15.93;;;-3.10;99.90;;;;;;5129859;27;20307;-27
2021/01/10 00:15:29;;;;;;;22.77;17.27;;;-3.10;99.90;;;;;;4948651;29;20693;-24
2021/01/10 00:17:57;;;;;;;23.15;16.10;;;-3.20;99.90;;;;;;4949818;29;20224;-24
2021/01/10 00:20:24;;;;;;;19.55;15.13;;;-3.20;99.90;;;;;;4948551;29;20587;-24
2021/01/10 00:22:51;;;;;;;27.48;18.50;;;-3.30;99.90;;;;;;4932016;29;20192;-24
2021/01/10 00:25:18;;;;;;;25.88;19.45;;;-3.20;99.90;;;;;;4948516;29;20507;-27
2021/01/10 00:27:46;;;;;;;33.15;20.42;;;-3.30;99.90;;;;;;4949267;29;20204;-24
2021/01/10 00:30:14;;;;;;;26.48;17.75;;;-3.30;99.90;;;;;;4951972;29;20342;-26
2021/01/10 00:32:46;;;;;;;29.67;19.75;;;-3.30;99.90;;;;;;4952059;29;20192;-26
2021/01/10 00:35:14;;;;;;;29.23;19.80;;;-3.20;99.90;;;;;;4952655;29;20393;-27
2021/01/10 00:37:44;;;;;;;26.70;17.15;;;-3.20;99.90;;;;;;4952489;29;20363;-26
2021/01/10 00:40:11;;;;;;;23.25;17.50;;;-3.30;99.90;;;;;;4937092;29;20495;-24
2021/01/10 00:42:40;;;;;;;25.90;17.92;;;-3.30;99.90;;;;;;4950147;29;20196;-24
2021/01/10 00:45:08;;;;;;;30.63;18.77;;;-3.30;99.90;;;;;;4949982;29;20294;-24
2021/01/10 00:47:35;;;;;;;24.92;16.65;;;-3.30;99.90;;;;;;4932255;29;20524;-24
2021/01/10 00:50:02;;;;;;;23.90;15.70;;;-3.30;99.90;;;;;;4932274;29;20440;-27
2021/01/10 00:52:30;;;;;;;23.58;16.95;;;-3.20;99.90;;;;;;4949101;29;20639;-26
2021/01/10 00:54:59;;;;;;;24.60;14.82;;;-3.10;99.90;;;;;;4932768;29;20314;-24
2021/01/10 00:57:25;;;;;;;23.55;15.38;;;-3.00;99.90;;;;;;4949229;29;20192;-24
2021/01/10 00:59:52;;;;;;;20.25;14.25;;;-2.90;99.90;;;;;;4932240;29;20242;-26
2021/01/10 01:02:19;;;;;;;26.55;14.05;;;-2.90;99.90;;;;;;4948569;29;20582;-26
2021/01/10 01:04:48;;;;;;;19.65;13.30;;;-2.80;99.90;;;;;;4932758;29;20207;-26
2021/01/10 01:07:16;;;;;;;24.98;15.60;;;-2.70;99.90;;;;;;4949649;29;20366;-26
2021/01/10 01:09:45;;;;;;;21.77;14.73;;;-2.70;99.90;;;;;;4953168;28;20314;-26
2021/01/10 01:12:12;;;;;;;20.48;15.20;;;-2.70;99.90;;;;;;4954503;29;20198;-26
2021/01/10 01:14:38;;;;;;;25.92;17.55;;;-2.70;99.90;;;;;;4978808;28;20525;-26
2021/01/10 01:17:07;;;;;;;21.20;14.35;;;-2.60;99.90;;;;;;4992912;28;20269;-24
2021/01/10 01:19:34;;;;;;;17.42;14.93;;;-2.50;99.90;;;;;;4990631;28;20318;-24
2021/01/10 01:22:00;;;;;;;24.05;14.63;;;-2.40;99.90;;;;;;4990538;28;20205;-24
2021/01/10 01:24:27;;;;;;;22.33;14.68;;;-2.30;99.90;;;;;;4990131;28;20202;-26
2021/01/10 01:26:54;;;;;;;20.40;14.43;;;-2.20;99.90;;;;;;4988218;28;20589;-26
2021/01/10 01:29:21;;;;;;;25.02;16.60;;;-2.10;99.90;;;;;;4991910;28;20195;-24
2021/01/10 01:31:47;;;;;;;23.35;15.95;;;-2.00;99.90;;;;;;4992095;28;20359;-26
2021/01/10 01:34:14;;;;;;;21.08;15.27;;;-2.00;99.90;;;;;;4992380;28;20206;-26
2021/01/10 01:36:41;;;;;;;20.10;13.48;;;-1.90;99.90;;;;;;4993963;28;20460;-26
2021/01/10 01:39:07;;;;;;;18.15;14.15;;;-1.90;99.90;;;;;;4992233;28;20211;-26
2021/01/10 01:41:38;;;;;;;20.48;13.77;;;-1.80;99.90;;;;;;4992041;28;20210;-26
2021/01/10 01:44:06;;;;;;;23.13;14.68;;;-1.80;99.90;;;;;;4992837;28;20306;-25
2021/01/10 01:46:34;;;;;;;24.42;15.15;;;-1.70;99.90;;;;;;4990858;28;20351;-26
2021/01/10 01:49:04;;;;;;;24.92;15.32;;;-1.70;99.90;;;;;;4991336;28;20199;-25
2021/01/10 01:51:31;;;;;;;25.00;15.38;;;-1.60;99.90;;;;;;4991247;28;20595;-25
2021/01/10 01:53:59;;;;;;;21.83;15.68;;;-1.60;99.90;;;;;;4991270;28;20379;-25
2021/01/10 01:56:25;;;;;;;24.23;15.73;;;-1.60;99.90;;;;;;4991852;28;20203;-26
2021/01/10 01:59:00;;;;;;;19.40;14.73;;;-1.60;99.90;;;;;;4990656;28;20310;-26
2021/01/10 02:01:29;;;;;;;22.80;15.73;;;-1.50;99.90;;;;;;4992184;28;20198;-26
2021/01/10 02:04:11;;;;;;;19.13;13.65;;;-1.50;99.90;;;;;;4990974;28;20233;-25
2021/01/10 02:06:45;;;;;;;17.83;13.40;;;-1.50;99.90;;;;;;4990842;28;20191;-25
2021/01/10 02:09:13;;;;;;;21.75;14.90;;;-1.50;99.90;;;;;;4991594;28;20210;-25
2021/01/10 02:11:43;;;;;;;18.35;14.65;;;-1.40;99.90;;;;;;4991993;28;20198;-25
2021/01/10 02:14:15;;;;;;;19.05;14.00;;;-1.40;99.90;;;;;;4990602;28;20250;-25
2021/01/10 02:16:43;;;;;;;17.08;12.07;;;-1.30;99.90;;;;;;4990117;28;20502;-26
2021/01/10 02:19:18;;;;;;;16.60;13.40;;;-1.20;99.90;;;;;;4990794;28;20219;-26
2021/01/10 02:21:46;;;;;;;26.23;15.43;;;-1.20;99.90;;;;;;4990495;28;20233;-26
2021/01/10 02:24:14;;;;;;;18.52;14.48;;;-1.20;99.90;;;;;;4989623;28;20589;-26
2021/01/10 02:26:42;;;;;;;20.02;14.25;;;-1.10;99.90;;;;;;4989644;28;20643;-25
2021/01/10 02:29:09;;;;;;;21.40;15.00;;;-1.10;99.90;;;;;;4989503;28;20494;-25
2021/01/10 02:31:39;;;;;;;22.80;14.90;;;-1.10;99.90;;;;;;4989714;28;20199;-25
2021/01/10 02:34:07;;;;;;;20.50;14.88;;;-1.00;99.90;;;;;;4990697;28;20210;-25
2021/01/10 02:36:51;;;;;;;24.95;16.67;;;-1.00;99.90;;;;;;4988934;28;20277;-25
2021/01/10 02:39:26;;;;;;;23.17;14.00;;;-0.90;99.90;;;;;;4990138;28;20280;-25
2021/01/10 02:41:59;;;;;;;18.40;14.45;;;-0.80;99.90;;;;;;4990542;28;20293;-25
2021/01/10 02:44:35;;;;;;;16.40;12.55;;;-0.90;99.90;;;;;;4989397;28;20277;-26
2021/01/10 02:47:01;;;;;;;18.17;13.05;;;-0.90;99.90;;;;;;4990229;28;20206;-25
2021/01/10 02:49:28;;;;;;;14.30;11.75;;;-0.80;99.90;;;;;;4989680;28;20187;-26
2021/01/10 02:51:54;;;;;;;17.48;13.40;;;-0.80;99.90;;;;;;4989693;28;20349;-25
2021/01/10 02:54:22;;;;;;;18.65;12.95;;;-0.90;99.90;;;;;;4988041;28;20675;-26
2021/01/10 02:56:53;;;;;;;18.58;13.15;;;-0.90;99.90;;;;;;4990470;28;20521;-25
2021/01/10 02:59:24;;;;;;;17.23;13.52;;;-0.90;99.90;;;;;;4990310;28;20603;-25
2021/01/10 03:01:54;;;;;;;13.90;12.02;;;-0.80;99.90;;;;;;4990695;28;20210;-26
2021/01/10 03:04:21;;;;;;;15.80;13.35;;;-0.80;99.90;;;;;;4990080;28;20476;-25
2021/01/10 03:06:52;;;;;;;20.00;13.32;;;-0.80;99.90;;;;;;4990355;28;20214;-25
2021/01/10 03:09:21;;;;;;;18.75;12.65;;;-0.80;99.90;;;;;;4990180;28;20601;-25
2021/01/10 03:11:49;;;;;;;13.77;12.27;;;-0.70;99.90;;;;;;4989709;28;20645;-25
2021/01/10 03:14:15;;;;;;;24.10;13.77;;;-0.70;99.90;;;;;;4989791;28;20297;-25
2021/01/10 03:16:43;;;;;;;18.17;13.10;;;-0.70;99.90;;;;;;4989096;28;20198;-26
2021/01/10 03:19:10;;;;;;;15.73;12.73;;;-0.70;99.90;;;;;;4989237;28;20210;-25
2021/01/10 03:21:36;;;;;;;16.77;13.15;;;-0.60;99.90;;;;;;4988858;28;20201;-26
2021/01/10 03:24:03;;;;;;;16.00;13.15;;;-0.60;99.90;;;;;;4990004;28;20203;-25
2021/01/10 03:26:32;;;;;;;20.55;14.63;;;-0.60;99.90;;;;;;4991513;28;20195;-26
2021/01/10 03:28:59;;;;;;;15.18;13.48;;;-0.60;99.90;;;;;;4990440;28;20202;-27
2021/01/10 03:31:25;;;;;;;19.25;14.25;;;-0.70;99.90;;;;;;4988263;28;20221;-25
2021/01/10 03:33:52;;;;;;;18.95;13.48;;;-0.70;99.90;;;;;;4988697;28;20285;-26
2021/01/10 03:36:18;;;;;;;20.23;14.20;;;-0.70;99.90;;;;;;4989929;28;20198;-25
2021/01/10 03:38:45;;;;;;;14.90;12.73;;;-0.60;99.90;;;;;;4989391;28;20644;-26
2021/01/10 03:41:12;;;;;;;18.42;14.82;;;-0.60;99.90;;;;;;4990574;28;20762;-25
2021/01/10 03:43:39;;;;;;;18.70;13.52;;;-0.60;99.90;;;;;;4991825;28;20463;-26
2021/01/10 03:46:06;;;;;;;16.92;12.45;;;-0.60;99.90;;;;;;4992779;28;20202;-25
2021/01/10 03:48:36;;;;;;;17.58;13.95;;;-0.60;99.90;;;;;;4990171;28;20460;-25
2021/01/10 03:51:04;;;;;;;18.15;13.95;;;-0.60;99.90;;;;;;4989209;28;20371;-26
2021/01/10 03:53:30;;;;;;;20.92;13.18;;;-0.60;99.90;;;;;;4989370;28;20191;-26
2021/01/10 03:55:57;;;;;;;18.02;12.43;;;-0.50;99.90;;;;;;4989488;28;20203;-25
2021/01/10 03:58:23;;;;;;;17.13;13.25;;;-0.50;99.90;;;;;;4987984;28;20239;-25
2021/01/10 04:00:51;;;;;;;18.67;13.45;;;-0.50;99.90;;;;;;4989743;28;20198;-25
2021/01/10 04:03:17;;;;;;;14.30;12.07;;;-0.40;99.90;;;;;;4991336;28;20554;-26
2021/01/10 04:05:44;;;;;;;13.95;12.55;;;-0.40;99.90;;;;;;4987973;28;20211;-26
2021/01/10 04:08:11;;;;;;;19.92;15.10;;;-0.40;99.90;;;;;;4988977;28;20198;-25
2021/01/10 04:10:37;;;;;;;17.90;13.70;;;-0.30;99.90;;;;;;4988176;28;20613;-25
2021/01/10 04:13:04;;;;;;;21.70;15.27;;;-0.30;99.90;;;;;;4989367;28;20471;-25
2021/01/10 04:15:30;;;;;;;18.63;13.93;;;-0.30;99.90;;;;;;4989086;28;20291;-26
2021/01/10 04:17:58;;;;;;;18.48;14.00;;;-0.30;99.90;;;;;;4988797;28;20250;-26
2021/01/10 04:20:24;;;;;;;19.55;15.20;;;-0.30;99.90;;;;;;4988569;28;20502;-26
2021/01/10 04:22:51;;;;;;;18.10;15.50;;;-0.30;99.90;;;;;;4996972;28;20195;-26
2021/01/10 04:25:18;;;;;;;23.65;16.25;;;-0.40;99.90;;;;;;4997904;28;20262;-25
2021/01/10 04:27:45;;;;;;;24.00;16.65;;;-0.50;99.90;;;;;;5000238;28;20275;-26
2021/01/10 04:30:12;;;;;;;21.30;15.98;;;-0.50;99.90;;;;;;4999174;28;20195;-25
2021/01/10 04:32:39;;;;;;;25.15;17.90;;;-0.50;99.90;;;;;;4991655;28;20270;-26
2021/01/10 04:35:07;;;;;;;22.88;16.08;;;-0.60;99.90;;;;;;4990240;28;20592;-25
2021/01/10 04:37:34;;;;;;;22.63;15.25;;;-0.80;99.90;;;;;;4992601;28;20257;-25
2021/01/10 04:40:00;;;;;;;23.85;17.00;;;-0.70;99.90;;;;;;4987734;28;20219;-25
2021/01/10 04:42:28;;;;;;;18.73;14.55;;;-0.60;99.90;;;;;;4987889;28;20198;-26
2021/01/10 04:44:55;;;;;;;30.23;18.80;;;-0.60;99.90;;;;;;4987547;28;20635;-26
2021/01/10 04:47:22;;;;;;;21.20;15.35;;;-0.60;99.90;;;;;;4987846;28;20210;-25
2021/01/10 04:49:49;;;;;;;26.13;17.13;;;-0.50;99.90;;;;;;4987798;28;20198;-25
2021/01/10 04:52:19;;;;;;;20.67;15.15;;;-0.50;99.90;;;;;;4987467;28;20230;-25
2021/01/10 04:54:46;;;;;;;21.33;16.33;;;-0.50;99.90;;;;;;4986213;28;20210;-25
2021/01/10 04:57:14;;;;;;;21.23;15.35;;;-0.50;99.90;;;;;;4988231;28;20194;-26
2021/01/10 04:59:42;;;;;;;20.83;15.65;;;-0.50;99.90;;;;;;4986359;28;20234;-25
2021/01/10 05:02:09;;;;;;;20.98;15.07;;;-0.50;99.90;;;;;;4986163;28;20236;-25
2021/01/10 05:04:38;;;;;;;23.92;15.20;;;-0.50;99.90;;;;;;4986158;28;20234;-25
2021/01/10 05:07:05;;;;;;;17.02;13.80;;;-0.50;99.90;;;;;;4986666;28;20488;-25
2021/01/10 05:09:32;;;;;;;22.65;14.95;;;-0.50;99.90;;;;;;4985995;28;20618;-26
2021/01/10 05:11:59;;;;;;;21.05;14.70;;;-0.40;99.90;;;;;;4987685;28;20387;-26
2021/01/10 05:14:26;;;;;;;22.60;16.00;;;-0.40;99.90;;;;;;4985749;28;20231;-26
2021/01/10 05:16:59;;;;;;;24.73;16.38;;;-0.30;99.90;;;;;;4986264;28;20198;-25
2021/01/10 05:19:29;;;;;;;20.40;14.93;;;-0.20;99.90;;;;;;4986966;28;20284;-25
2021/01/10 05:21:56;;;;;;;20.58;13.32;;;-0.20;99.90;;;;;;4987060;28;20207;-26
2021/01/10 05:24:23;;;;;;;18.00;14.10;;;-0.10;99.90;;;;;;4985206;28;20452;-27
2021/01/10 05:26:51;;;;;;;17.75;13.50;;;-0.10;99.90;;;;;;4984042;28;20323;-26
2021/01/10 05:29:18;;;;;;;18.98;13.85;;;-0.10;99.90;;;;;;4986735;28;20215;-25
2021/01/10 05:31:45;;;;;;;19.52;14.32;;;-0.10;99.90;;;;;;4987878;28;20497;-25
2021/01/10 05:34:14;;;;;;;18.25;12.90;;;-0.10;99.90;;;;;;4986920;28;20195;-26
2021/01/10 05:36:41;;;;;;;21.77;14.13;;;-0.10;99.90;;;;;;4986995;28;20281;-26
2021/01/10 05:39:19;;;;;;;17.55;15.13;;;-0.10;99.90;;;;;;4985756;28;20226;-24
2021/01/10 05:41:55;;;;;;;15.80;12.60;;;-0.10;99.90;;;;;;4986241;28;20236;-26
2021/01/10 05:44:22;;;;;;;19.83;13.70;;;-0.20;99.90;;;;;;4986018;28;20214;-26
2021/01/10 05:46:49;;;;;;;18.52;14.25;;;-0.20;99.90;;;;;;4987028;28;20202;-26
2021/01/10 05:49:20;;;;;;;17.80;13.15;;;-0.30;99.90;;;;;;4987400;28;20269;-26
2021/01/10 05:51:48;;;;;;;17.95;12.88;;;-0.30;99.90;;;;;;4986487;28;20195;-26
2021/01/10 05:54:34;;;;;;;15.73;12.00;;;-0.40;99.90;;;;;;4969401;28;20554;-26
2021/01/10 05:57:03;;;;;;;17.83;13.55;;;-0.40;99.90;;;;;;4989288;28;20255;-26
2021/01/10 05:59:33;;;;;;;18.98;12.60;;;-0.50;99.90;;;;;;4989590;28;20253;-26
2021/01/10 06:02:02;;;;;;;17.55;13.63;;;-0.50;99.90;;;;;;4988972;28;20616;-26
2021/01/10 06:04:31;;;;;;;16.90;14.13;;;-0.50;99.90;;;;;;4990310;28;20213;-26
2021/01/10 06:06:58;;;;;;;17.20;13.65;;;-0.60;99.90;;;;;;4989454;28;20652;-26
2021/01/10 06:09:26;;;;;;;15.77;13.60;;;-0.70;99.90;;;;;;4990009;28;20206;-26
2021/01/10 06:11:53;;;;;;;17.98;13.05;;;-0.70;99.90;;;;;;4989315;28;20560;-26
2021/01/10 06:14:22;;;;;;;17.65;13.43;;;-0.70;99.90;;;;;;4988053;28;20555;-26
2021/01/10 06:16:54;;;;;;;14.23;12.75;;;-0.70;99.90;;;;;;4989077;28;20321;-26
2021/01/10 06:19:27;;;;;;;19.30;13.35;;;-0.70;99.90;;;;;;4990220;28;20246;-26
2021/01/10 06:21:56;;;;;;;21.17;14.95;;;-0.70;99.90;;;;;;4989402;28;20475;-26
2021/01/10 06:24:24;;;;;;;15.75;11.43;;;-0.70;99.90;;;;;;4987054;28;20221;-24
2021/01/10 06:27:09;;;;;;;17.48;13.27;;;-0.60;99.90;;;;;;4989950;28;20209;-24
2021/01/10 06:29:40;;;;;;;17.05;13.48;;;-0.60;99.90;;;;;;4990660;28;20239;-23
2021/01/10 06:32:12;;;;;;;22.02;14.55;;;-0.50;99.90;;;;;;4990462;28;20217;-26
2021/01/10 06:34:40;;;;;;;20.38;13.40;;;-0.50;99.90;;;;;;4988826;28;20511;-26
2021/01/10 06:37:08;;;;;;;18.90;14.25;;;-0.50;99.90;;;;;;4990159;28;20206;-25
2021/01/10 06:39:39;;;;;;;20.27;14.68;;;-0.50;99.90;;;;;;4989871;28;20261;-26
2021/01/10 06:42:14;;;;;;;14.85;12.77;;;-0.60;99.90;;;;;;4989815;28;20195;-26
2021/01/10 06:44:45;;;;;;;18.80;13.73;;;-0.60;99.90;;;;;;4988724;28;20221;-25
2021/01/10 06:47:18;;;;;;;16.42;12.48;;;-0.70;99.90;;;;;;4990289;28;20301;-27
2021/01/10 06:49:44;;;;;;;16.17;12.48;;;-0.70;99.90;;;;;;4988818;28;20206;-25
2021/01/10 06:52:12;;;;;;;18.42;12.77;;;-0.80;99.90;;;;;;4989478;28;20631;-26
2021/01/10 06:54:43;;;;;;;18.50;12.65;;;-0.80;99.90;;;;;;4987374;28;20323;-26
2021/01/10 06:57:10;;;;;;;16.27;12.65;;;-0.90;99.90;;;;;;4988317;28;20210;-26
2021/01/10 07:00:14;;;;;;;18.73;14.02;;;-0.90;99.90;;;;;;4989264;28;20375;-26
2021/01/10 07:03:07;;;;;;;21.38;14.35;;;-0.80;99.90;;;;;;4988756;28;20474;-26
2021/01/10 07:06:01;;;;;;;18.90;14.05;;;-0.80;99.90;;;;;;4989702;28;20602;-25
2021/01/10 07:08:32;;;;;;;19.60;15.80;;;-0.70;99.90;;;;;;4989973;28;20202;-25
2021/01/10 07:11:30;;;;;;;22.20;15.93;;;-0.60;99.90;;;;;;4989239;28;20229;-25
2021/01/10 07:14:28;;;;;;;18.48;15.13;;;-0.60;99.90;;;;;;4987383;28;20485;-26
2021/01/10 07:17:24;;;;;;;19.10;13.75;;;-0.50;99.90;;;;;;4988461;28;20195;-25
2021/01/10 07:19:52;;;;;;;17.23;13.68;;;-0.50;99.90;;;;;;4984778;28;20257;-24
2021/01/10 07:22:30;;;;;;;16.13;14.05;;;-0.50;99.90;;;;;;4969725;28;20214;-27
2021/01/10 07:24:57;;;;;;;15.23;13.27;;;-0.50;99.90;;;;;;4988292;28;20241;-24
2021/01/10 07:27:29;;;;;;;18.38;13.85;;;-0.50;99.90;;;;;;4988200;28;20266;-26
2021/01/10 07:29:55;;;;;;;19.85;13.73;;;-0.40;99.90;;;;;;4970534;28;20195;-26
2021/01/10 07:32:34;;;;;;;24.30;16.73;;;-0.40;99.90;;;;;;4986474;28;20520;-24
2021/01/10 07:35:02;;;;;;;22.42;14.40;;;-0.40;99.90;;;;;;4985570;28;20429;-25
2021/01/10 07:37:29;;;;;;;19.88;14.70;;;-0.30;99.90;;;;;;4984812;28;20585;-25
2021/01/10 07:39:58;;;;;;;18.50;14.02;;;-0.30;99.90;;;;;;4986302;28;20214;-25
2021/01/10 07:42:27;;;;;;;18.85;13.00;;;-0.30;99.90;;;;;;4988305;28;20275;-26
2021/01/10 07:44:56;;;;;;;21.25;14.18;;;-0.20;99.90;;;;;;4987238;28;20532;-24
2021/01/10 07:47:41;;;;;;;20.70;14.80;;;-0.20;99.90;;;;;;4984900;28;20253;-26
2021/01/10 07:50:18;;;;;;;17.25;13.70;;;-0.10;99.90;;;;;;4985238;28;20276;-24
2021/01/10 07:52:57;;;;;;;25.92;14.90;;;-0.10;99.90;;;;;;4986653;28;20206;-25
2021/01/10 07:55:26;;;;;;;22.67;15.23;;;-0.10;99.90;;;;;;4986479;28;20245;-24
2021/01/10 07:57:54;;;;;;;24.10;17.05;;;0.00;99.90;;;;;;4986466;28;20198;-24
2021/01/10 08:00:22;;;;;;;19.67;16.17;;;0.10;99.90;;;;;;4984259;28;20234;-25
2021/01/10 08:02:52;;;;;;;21.05;16.27;;;0.20;99.90;;;;;;4986557;28;20187;-25
2021/01/10 08:05:21;;;;;;;24.77;16.85;;;0.20;99.90;;;;;;4987371;28;20270;-26
2021/01/10 08:07:54;;;;;;;23.92;17.15;;;0.30;99.90;;;;;;4989810;28;20201;-25
2021/01/10 08:10:23;;;;;;;25.52;16.75;;;0.40;99.90;;;;;;4989467;28;20203;-26
2021/01/10 08:12:50;;;;;;;23.13;17.55;;;0.50;99.90;;;;;;4989562;28;20210;-25
2021/01/10 08:15:17;;;;;;;25.05;17.45;;;0.60;99.90;;;;;;4989463;28;20300;-26
2021/01/10 08:17:44;;;;;;;22.45;17.05;;;0.70;99.90;;;;;;4987732;28;20922;-26
2021/01/10 08:20:13;;;;;;;23.10;16.65;;;0.80;99.90;;;;;;4988547;28;20218;-26
2021/01/10 08:22:40;;;;;;;19.63;15.50;;;0.90;99.90;;;;;;4988692;28;20218;-26
2021/01/10 08:25:21;;;;;;;21.63;15.52;;;0.90;99.90;;;;;;4988793;28;20194;-26
2021/01/10 08:27:47;;;;;;;17.88;15.25;;;1.00;99.90;;;;;;4990148;28;20476;-25
2021/01/10 08:30:16;;;;;;;20.70;14.45;;;1.10;99.90;;;;;;4990155;28;20626;-26
2021/01/10 08:32:43;;;;;;;15.40;12.65;;;1.20;99.90;;;;;;4989002;28;20199;-26
2021/01/10 08:35:10;;;;;;;18.70;15.23;;;1.30;99.90;;;;;;4988550;28;20260;-26
2021/01/10 08:37:38;;;;;;;17.50;15.17;;;1.30;99.90;;;;;;4990296;28;20967;-26
2021/01/10 08:40:08;;;;;;;22.10;15.57;;;1.40;99.90;;;;;;4989633;28;20477;-26
2021/01/10 08:42:36;;;;;;;16.42;13.82;;;1.50;99.90;;;;;;4990162;28;20498;-26
2021/01/10 08:45:16;;;;;;;14.87;13.37;;;1.60;99.90;;;;;;4988972;28;20194;-27
2021/01/10 08:47:44;;;;;;;21.00;15.45;;;1.70;99.90;;;;;;4988448;28;20441;-26
2021/01/10 08:50:11;;;;;;;19.40;15.67;;;1.80;99.90;;;;;;4988736;28;20191;-26
2021/01/10 08:52:57;;;;;;;17.90;12.53;;;1.90;99.90;;;;;;4989499;28;20920;-26
2021/01/10 08:55:36;;;;;;;18.73;13.93;;;2.00;99.90;;;;;;4988875;28;20475;-26
2021/01/10 08:58:04;;;;;;;14.47;11.93;;;2.10;99.90;;;;;;4989106;28;20463;-26
2021/01/10 09:00:31;;;;;;;15.80;12.27;;;2.20;99.90;;;;;;4989960;28;20564;-26
2021/01/10 09:03:16;;;;;;;13.57;11.07;;;2.00;99.90;;;;;;4989485;28;20939;-27
2021/01/10 09:05:44;;;;;;;17.33;13.83;;;1.90;99.90;;;;;;4991393;28;20440;-26
2021/01/10 09:08:21;;;;;;;15.43;13.33;;;1.70;99.90;;;;;;4989145;28;20445;-26
2021/01/10 09:10:56;;;;;;;16.27;13.03;;;1.70;99.90;;;;;;4989113;28;20707;-26
2021/01/10 09:13:25;;;;;;;21.20;11.77;;;1.80;99.90;;;;;;4989341;28;20502;-26
2021/01/10 09:15:54;;;;;;;16.17;12.47;;;1.80;99.90;;;;;;4989468;28;20440;-26
2021/01/10 09:18:23;;;;;;;16.90;13.27;;;1.80;99.90;;;;;;4983846;28;20871;-26
2021/01/10 09:20:53;;;;;;;14.83;12.57;;;1.90;99.90;;;;;;4983354;28;20805;-27
2021/01/10 09:23:21;;;;;;;17.83;14.73;;;2.10;99.90;;;;;;4984765;28;20771;-26
2021/01/10 09:25:48;;;;;;;16.60;13.10;;;2.40;99.90;;;;;;4981212;28;20444;-26
2021/01/10 09:28:16;;;;;;;15.33;11.90;;;2.60;99.90;;;;;;4984579;28;20717;-27
2021/01/10 09:30:44;;;;;;;17.90;12.57;;;2.70;99.90;;;;;;4989137;28;20445;-26
2021/01/10 09:33:12;;;;;;;13.83;11.87;;;2.60;99.90;;;;;;4988719;28;20877;-26
2021/01/10 09:35:42;;;;;;;17.83;12.63;;;2.50;99.90;;;;;;4988116;28;20440;-26
2021/01/10 09:38:11;;;;;;;18.07;13.60;;;2.40;99.90;;;;;;4988740;28;20455;-26
2021/01/10 09:40:58;;;;;;;16.57;13.57;;;2.10;99.90;;;;;;4988813;28;20771;-26
2021/01/10 09:43:36;;;;;;;18.30;13.77;;;2.10;99.90;;;;;;4992297;28;20456;-26
2021/01/10 09:46:02;;;;;;;17.53;13.70;;;2.30;99.90;;;;;;4989157;28;20447;-27
2021/01/10 09:48:30;;;;;;;17.97;13.57;;;2.10;99.90;;;;;;4992082;28;20442;-26
2021/01/10 09:50:57;;;;;;;15.37;12.50;;;2.10;99.90;;;;;;4990314;28;20500;-26
2021/01/10 09:53:27;;;;;;;16.23;12.80;;;2.00;99.90;;;;;;4989914;28;21114;-26
2021/01/10 09:55:55;;;;;;;17.57;11.63;;;2.00;99.90;;;;;;4991989;28;20503;-26
2021/01/10 09:58:22;;;;;;;14.73;13.07;;;2.10;99.90;;;;;;4991763;28;20478;-26
2021/01/10 10:00:56;;;;;;;15.30;12.10;;;2.30;99.90;;;;;;4988322;28;20465;-26
2021/01/10 10:03:23;;;;;;;13.13;11.37;;;2.40;99.90;;;;;;4989133;28;20587;-26
2021/01/10 10:05:57;;;;;;;17.73;13.27;;;2.50;99.90;;;;;;4990343;28;20436;-26
2021/01/10 10:08:23;;;;;;;19.60;14.53;;;2.50;99.90;;;;;;4990796;28;20590;-26
2021/01/10 10:11:17;;;;;;;16.80;12.60;;;2.60;99.90;;;;;;4989128;28;20507;-26
2021/01/10 10:13:44;;;;;;;17.20;12.37;;;2.40;99.90;;;;;;4988260;28;20737;-26
2021/01/10 10:16:17;;;;;;;13.50;11.47;;;2.60;99.90;;;;;;4990991;28;20499;-26
2021/01/10 10:18:44;;;;;;;17.70;13.10;;;2.80;99.90;;;;;;4989966;28;20554;-26
2021/01/10 10:21:10;;;;;;;12.57;11.23;;;2.90;99.90;;;;;;4993918;28;20451;-26
2021/01/10 10:23:41;;;;;;;14.03;11.97;;;3.00;99.90;;;;;;4994769;28;20531;-26
2021/01/10 10:26:09;;;;;;;17.03;13.07;;;3.00;99.90;;;;;;4991433;28;20444;-26
2021/01/10 10:28:36;;;;;;;14.93;11.30;;;3.00;99.90;;;;;;4990001;28;20802;-26
2021/01/10 10:31:02;;;;;;;15.33;11.67;;;2.90;99.90;;;;;;4989237;28;20463;-26
2021/01/10 10:33:29;;;;;;;13.30;11.23;;;2.80;99.90;;;;;;4987657;28;20498;-27
2021/01/10 10:35:56;;;;;;;14.60;12.20;;;2.60;99.90;;;;;;4989061;28;20475;-26
2021/01/10 10:38:23;;;;;;;14.10;10.40;;;2.60;99.90;;;;;;4991117;28;20456;-26
2021/01/10 10:40:49;;;;;;;15.50;11.00;;;2.80;99.90;;;;;;4987062;28;20904;-26
2021/01/10 10:43:16;;;;;;;15.17;11.63;;;2.90;99.90;;;;;;4989975;28;20483;-26
2021/01/10 10:45:43;;;;;;;14.97;11.60;;;2.90;99.90;;;;;;4993108;28;20478;-26
2021/01/10 10:48:20;;;;;;;14.40;11.13;;;2.90;99.90;;;;;;5059048;23;20424;31
2021/01/10 10:50:46;;;;;;;15.27;12.40;;;2.90;99.90;;;;;;4968034;28;20476;-25
2021/01/10 10:53:13;;;;;;;13.70;11.43;;;2.60;99.90;;;;;;4988153;28;20539;-26
2021/01/10 10:55:40;;;;;;;15.17;12.23;;;2.60;99.90;;;;;;4988503;28;20650;-25
2021/01/10 10:58:07;;;;;;;15.97;12.30;;;2.80;99.90;;;;;;4986780;28;20437;-25
2021/01/10 11:00:35;;;;;;;14.60;12.97;;;2.90;99.90;;;;;;4984968;28;20886;-25
2021/01/10 11:03:02;;;;;;;14.43;12.93;;;2.80;99.90;;;;;;4986123;28;20764;-27
2021/01/10 11:05:28;;;;;;;15.37;13.07;;;2.90;99.90;;;;;;4985353;28;20777;-27
2021/01/10 11:07:55;;;;;;;16.20;11.83;;;3.10;99.90;;;;;;4986575;28;20547;-27
2021/01/10 11:10:21;;;;;;;15.47;11.60;;;3.30;99.90;;;;;;4986160;28;20793;-26
2021/01/10 11:12:48;;;;;;;14.90;12.60;;;3.40;99.90;;;;;;4986232;28;20534;-27
2021/01/10 11:15:14;;;;;;;16.07;12.13;;;3.60;99.90;;;;;;4985603;28;20742;-26
2021/01/10 11:17:42;;;;;;;13.40;11.50;;;3.60;99.90;;;;;;4985260;28;20777;-27
2021/01/10 11:20:09;;;;;;;13.60;11.20;;;3.70;99.90;;;;;;4985318;28;20466;-27
2021/01/10 11:22:35;;;;;;;13.70;12.10;;;3.70;99.90;;;;;;4985416;28;20531;-27
2021/01/10 11:25:03;;;;;;;14.23;10.90;;;3.70;99.90;;;;;;4987264;28;21053;-25
2021/01/10 11:27:30;;;;;;;16.60;12.90;;;3.80;99.90;;;;;;4985608;28;20441;-26
2021/01/10 11:29:56;;;;;;;14.87;12.03;;;4.00;99.90;;;;;;4985053;28;20783;-26
2021/01/10 11:32:23;;;;;;;14.13;12.33;;;4.10;99.90;;;;;;4984333;28;20716;-26
2021/01/10 11:34:51;;;;;;;15.43;11.87;;;4.20;99.90;;;;;;4984983;28;20452;-26
2021/01/10 11:37:20;;;;;;;16.90;13.10;;;4.20;99.90;;;;;;4987214;28;20548;-26
2021/01/10 11:39:47;;;;;;;16.83;13.73;;;4.20;99.90;;;;;;4981786;28;20488;-27
2021/01/10 11:42:14;;;;;;;14.87;12.77;;;4.20;99.90;;;;;;4987664;28;20615;-25
2021/01/10 11:44:40;;;;;;;13.90;12.33;;;4.30;99.90;;;;;;4985738;28;20512;-25
2021/01/10 11:47:07;;;;;;;15.20;13.20;;;4.30;99.90;;;;;;4985647;28;20441;-26
2021/01/10 11:49:33;;;;;;;15.10;11.30;;;4.50;99.90;;;;;;4984057;28;20490;-26
2021/01/10 11:52:01;;;;;;;14.57;12.00;;;4.60;99.90;;;;;;4983092;28;21068;-27
2021/01/10 11:54:27;;;;;;;12.97;11.57;;;4.50;99.90;;;;;;4984791;28;20693;-26
2021/01/10 11:56:54;;;;;;;15.00;11.43;;;4.60;99.90;;;;;;4984650;28;20444;-26
2021/01/10 11:59:21;;;;;;;17.63;13.17;;;4.60;99.90;;;;;;4986776;28;20479;-26
2021/01/10 12:01:47;;;;;;;15.40;12.87;;;4.60;99.90;;;;;;4984273;28;20441;-26
2021/01/10 12:04:14;;;;;;;13.10;11.77;;;4.90;99.90;;;;;;4984167;28;20960;-26
2021/01/10 12:06:41;;;;;;;17.03;12.00;;;5.10;99.90;;;;;;4986514;28;20437;-26
2021/01/10 12:09:11;;;;;;;15.03;11.60;;;5.00;99.90;;;;;;4985726;28;20495;-26
2021/01/10 12:11:38;;;;;;;12.80;10.93;;;5.10;99.90;;;;;;4986423;28;20468;-26
2021/01/10 12:14:05;;;;;;;11.70;10.50;;;5.40;99.90;;;;;;4985814;28;20490;-26
2021/01/10 12:16:31;;;;;;;15.73;11.57;;;5.50;99.90;;;;;;4984739;28;20455;-26
2021/01/10 12:18:58;;;;;;;14.83;10.80;;;5.50;99.90;;;;;;4984086;28;20455;-26
2021/01/10 12:21:24;;;;;;;13.53;12.33;;;5.50;99.90;;;;;;4985320;28;20526;-26
2021/01/10 12:23:51;;;;;;;13.30;11.47;;;5.50;99.90;;;;;;4984243;28;20543;-27
2021/01/10 12:26:19;;;;;;;11.40;10.30;;;5.60;99.90;;;;;;4983224;28;20453;-26
2021/01/10 12:28:47;;;;;;;11.90;10.17;;;5.70;99.90;;;;;;4967138;28;20496;-26
2021/01/10 12:31:14;;;;;;;15.97;12.17;;;5.60;99.90;;;;;;4985175;28;20523;-26
2021/01/10 12:33:41;;;;;;;12.80;11.03;;;5.90;99.90;;;;;;4982335;28;20455;-26
2021/01/10 12:36:09;;;;;;;14.90;11.60;;;6.00;99.90;;;;;;4983216;28;20710;-26
2021/01/10 12:38:36;;;;;;;12.80;11.50;;;6.30;99.90;;;;;;4981766;28;20437;-26
2021/01/10 12:41:03;;;;;;;13.43;11.30;;;6.20;99.30;;;;;;4982085;28;20511;-26
2021/01/10 12:43:31;;;;;;;14.93;13.30;;;6.00;99.40;;;;;;4981923;28;20455;-26